Terminal Aerodrome Forecast
Issued by NWS Central Illinois

Home | Current Version | Previous Version | Text Only | Print | Product List | Glossary On
Versions: 1 2 3 4 5 6 7 8 9 10 11 12 13 14 15 16 17 18 19 20 21
403
FTUS43 KILX 011729
TAFSPI
TAF
KSPI 011729Z 0118/0218 31006KT 6SM -SHRA SCT025 BKN035
      TEMPO 0118/0120 3SM -SHRA BR BKN025
     FM012300 VRB03KT P6SM BKN050
     FM020900 VRB03KT 2SM BR BKN003
     FM021400 32004KT 4SM BR BKN008
     FM021700 33005KT P6SM BKN045=

USA.gov is the U.S. government's official web portal to all federal, state and local government web resources and services.